sensor_id;sensor_type;location;lat;lon;timestamp;P1;durP1;ratioP1;P2;durP2;ratioP2
74614;SDS011;63121;51.458;-0.110;2023-03-08T00:00:34;15.40;;;5.90;;
74614;SDS011;63121;51.458;-0.110;2023-03-08T00:02:59;16.33;;;6.18;;
74614;SDS011;63121;51.458;-0.110;2023-03-08T00:05:25;15.93;;;6.07;;
74614;SDS011;63121;51.458;-0.110;2023-03-08T00:07:53;18.48;;;7.68;;
74614;SDS011;63121;51.458;-0.110;2023-03-08T00:10:19;18.88;;;7.55;;
74614;SDS011;63121;51.458;-0.110;2023-03-08T00:12:45;15.25;;;6.57;;
74614;SDS011;63121;51.458;-0.110;2023-03-08T00:15:10;17.87;;;7.00;;
74614;SDS011;63121;51.458;-0.110;2023-03-08T00:17:36;19.27;;;6.85;;
74614;SDS011;63121;51.458;-0.110;2023-03-08T00:20:03;17.65;;;6.82;;
74614;SDS011;63121;51.458;-0.110;2023-03-08T00:22:33;16.88;;;6.82;;
74614;SDS011;63121;51.458;-0.110;2023-03-08T00:25:03;17.10;;;6.95;;
74614;SDS011;63121;51.458;-0.110;2023-03-08T00:27:29;18.17;;;6.32;;
74614;SDS011;63121;51.458;-0.110;2023-03-08T00:29:54;19.97;;;7.77;;
74614;SDS011;63121;51.458;-0.110;2023-03-08T00:32:20;16.10;;;7.18;;
74614;SDS011;63121;51.458;-0.110;2023-03-08T00:34:45;17.80;;;7.38;;
74614;SDS011;63121;51.458;-0.110;2023-03-08T00:37:11;20.60;;;7.37;;
74614;SDS011;63121;51.458;-0.110;2023-03-08T00:39:37;19.77;;;7.95;;
74614;SDS011;63121;51.458;-0.110;2023-03-08T00:42:03;22.58;;;8.80;;
74614;SDS011;63121;51.458;-0.110;2023-03-08T00:44:28;19.83;;;8.10;;
74614;SDS011;63121;51.458;-0.110;2023-03-08T00:46:54;21.83;;;8.27;;
74614;SDS011;63121;51.458;-0.110;2023-03-08T00:49:19;22.43;;;7.67;;
74614;SDS011;63121;51.458;-0.110;2023-03-08T00:51:45;19.45;;;7.75;;
74614;SDS011;63121;51.458;-0.110;2023-03-08T00:54:10;18.23;;;7.57;;
74614;SDS011;63121;51.458;-0.110;2023-03-08T00:56:35;22.47;;;8.70;;
74614;SDS011;63121;51.458;-0.110;2023-03-08T00:59:01;22.17;;;9.13;;
74614;SDS011;63121;51.458;-0.110;2023-03-08T01:01:26;22.58;;;8.38;;
74614;SDS011;63121;51.458;-0.110;2023-03-08T01:03:51;23.70;;;9.10;;
74614;SDS011;63121;51.458;-0.110;2023-03-08T01:06:17;19.67;;;8.23;;
74614;SDS011;63121;51.458;-0.110;2023-03-08T01:08:42;22.40;;;9.38;;
74614;SDS011;63121;51.458;-0.110;2023-03-08T01:11:16;24.70;;;10.00;;
74614;SDS011;63121;51.458;-0.110;2023-03-08T01:13:44;23.98;;;8.95;;
74614;SDS011;63121;51.458;-0.110;2023-03-08T01:16:43;21.30;;;8.93;;
74614;SDS011;63121;51.458;-0.110;2023-03-08T01:19:01;22.63;;;9.85;;
74614;SDS011;63121;51.458;-0.110;2023-03-08T01:23:54;20.90;;;7.88;;
74614;SDS011;63121;51.458;-0.110;2023-03-08T01:26:21;21.35;;;8.13;;
74614;SDS011;63121;51.458;-0.110;2023-03-08T01:28:48;20.90;;;8.63;;
74614;SDS011;63121;51.458;-0.110;2023-03-08T01:31:15;21.50;;;8.20;;
74614;SDS011;63121;51.458;-0.110;2023-03-08T01:33:51;26.05;;;9.48;;
74614;SDS011;63121;51.458;-0.110;2023-03-08T01:36:19;24.75;;;9.95;;
74614;SDS011;63121;51.458;-0.110;2023-03-08T01:38:47;19.63;;;7.57;;
74614;SDS011;63121;51.458;-0.110;2023-03-08T01:41:14;22.85;;;8.98;;
74614;SDS011;63121;51.458;-0.110;2023-03-08T01:43:42;24.00;;;9.35;;
74614;SDS011;63121;51.458;-0.110;2023-03-08T01:51:12;20.30;;;8.43;;
74614;SDS011;63121;51.458;-0.110;2023-03-08T01:53:42;20.55;;;7.88;;
74614;SDS011;63121;51.458;-0.110;2023-03-08T01:56:08;25.85;;;8.30;;
74614;SDS011;63121;51.458;-0.110;2023-03-08T01:58:38;18.52;;;7.50;;
74614;SDS011;63121;51.458;-0.110;2023-03-08T02:01:05;20.95;;;7.18;;
74614;SDS011;63121;51.458;-0.110;2023-03-08T02:03:31;21.10;;;8.25;;
74614;SDS011;63121;51.458;-0.110;2023-03-08T02:05:56;19.08;;;7.78;;
74614;SDS011;63121;51.458;-0.110;2023-03-08T02:08:22;22.20;;;8.57;;
74614;SDS011;63121;51.458;-0.110;2023-03-08T02:10:47;17.55;;;7.00;;
74614;SDS011;63121;51.458;-0.110;2023-03-08T02:13:14;22.27;;;8.20;;
74614;SDS011;63121;51.458;-0.110;2023-03-08T02:15:40;23.15;;;9.38;;
74614;SDS011;63121;51.458;-0.110;2023-03-08T02:18:05;21.77;;;8.13;;
74614;SDS011;63121;51.458;-0.110;2023-03-08T02:20:32;20.52;;;8.15;;
74614;SDS011;63121;51.458;-0.110;2023-03-08T02:23:22;19.92;;;7.80;;
74614;SDS011;63121;51.458;-0.110;2023-03-08T02:25:56;20.52;;;8.48;;
74614;SDS011;63121;51.458;-0.110;2023-03-08T02:28:26;19.85;;;7.18;;
74614;SDS011;63121;51.458;-0.110;2023-03-08T02:30:52;19.60;;;7.57;;
74614;SDS011;63121;51.458;-0.110;2023-03-08T02:33:19;20.77;;;7.40;;
74614;SDS011;63121;51.458;-0.110;2023-03-08T02:35:44;19.65;;;7.75;;
74614;SDS011;63121;51.458;-0.110;2023-03-08T02:38:10;21.27;;;7.75;;
74614;SDS011;63121;51.458;-0.110;2023-03-08T02:40:38;23.80;;;8.30;;
74614;SDS011;63121;51.458;-0.110;2023-03-08T02:43:03;18.42;;;7.60;;
74614;SDS011;63121;51.458;-0.110;2023-03-08T02:45:29;21.65;;;7.95;;
74614;SDS011;63121;51.458;-0.110;2023-03-08T02:47:55;18.25;;;7.55;;
74614;SDS011;63121;51.458;-0.110;2023-03-08T02:50:20;21.10;;;8.43;;
74614;SDS011;63121;51.458;-0.110;2023-03-08T02:52:46;19.55;;;7.82;;
74614;SDS011;63121;51.458;-0.110;2023-03-08T02:55:11;23.63;;;9.10;;
74614;SDS011;63121;51.458;-0.110;2023-03-08T02:57:36;18.98;;;7.78;;
74614;SDS011;63121;51.458;-0.110;2023-03-08T03:00:02;20.08;;;7.47;;
74614;SDS011;63121;51.458;-0.110;2023-03-08T03:02:28;19.52;;;8.07;;
74614;SDS011;63121;51.458;-0.110;2023-03-08T03:04:53;20.17;;;8.43;;
74614;SDS011;63121;51.458;-0.110;2023-03-08T03:07:19;21.15;;;8.40;;
74614;SDS011;63121;51.458;-0.110;2023-03-08T03:09:44;25.83;;;10.30;;
74614;SDS011;63121;51.458;-0.110;2023-03-08T03:12:09;19.90;;;7.77;;
74614;SDS011;63121;51.458;-0.110;2023-03-08T03:14:35;23.47;;;9.07;;
74614;SDS011;63121;51.458;-0.110;2023-03-08T03:17:00;25.75;;;8.43;;
74614;SDS011;63121;51.458;-0.110;2023-03-08T03:19:26;24.17;;;9.40;;
74614;SDS011;63121;51.458;-0.110;2023-03-08T03:21:51;22.17;;;8.88;;
74614;SDS011;63121;51.458;-0.110;2023-03-08T03:24:16;24.13;;;9.30;;
74614;SDS011;63121;51.458;-0.110;2023-03-08T03:26:42;23.08;;;8.43;;
74614;SDS011;63121;51.458;-0.110;2023-03-08T03:29:07;22.67;;;9.07;;
74614;SDS011;63121;51.458;-0.110;2023-03-08T03:31:33;22.30;;;8.73;;
74614;SDS011;63121;51.458;-0.110;2023-03-08T03:33:58;22.95;;;8.70;;
74614;SDS011;63121;51.458;-0.110;2023-03-08T03:36:24;21.87;;;8.77;;
74614;SDS011;63121;51.458;-0.110;2023-03-08T03:38:49;27.13;;;8.73;;
74614;SDS011;63121;51.458;-0.110;2023-03-08T03:41:16;27.10;;;9.73;;
74614;SDS011;63121;51.458;-0.110;2023-03-08T03:43:44;25.45;;;9.32;;
74614;SDS011;63121;51.458;-0.110;2023-03-08T03:46:11;24.83;;;8.93;;
74614;SDS011;63121;51.458;-0.110;2023-03-08T03:48:38;22.13;;;8.45;;
74614;SDS011;63121;51.458;-0.110;2023-03-08T03:51:05;24.15;;;8.77;;
74614;SDS011;63121;51.458;-0.110;2023-03-08T03:53:32;22.02;;;8.63;;
74614;SDS011;63121;51.458;-0.110;2023-03-08T03:56:04;26.80;;;8.95;;
74614;SDS011;63121;51.458;-0.110;2023-03-08T03:58:32;20.80;;;7.97;;
74614;SDS011;63121;51.458;-0.110;2023-03-08T04:00:58;21.35;;;8.20;;
74614;SDS011;63121;51.458;-0.110;2023-03-08T04:03:24;23.27;;;9.18;;
74614;SDS011;63121;51.458;-0.110;2023-03-08T04:05:50;20.73;;;8.77;;
74614;SDS011;63121;51.458;-0.110;2023-03-08T04:08:16;21.88;;;8.55;;
74614;SDS011;63121;51.458;-0.110;2023-03-08T04:10:41;23.27;;;8.73;;
74614;SDS011;63121;51.458;-0.110;2023-03-08T04:13:07;21.02;;;8.68;;
74614;SDS011;63121;51.458;-0.110;2023-03-08T04:15:32;20.05;;;8.15;;
74614;SDS011;63121;51.458;-0.110;2023-03-08T04:17:57;22.97;;;9.20;;
74614;SDS011;63121;51.458;-0.110;2023-03-08T04:20:23;20.57;;;8.23;;
74614;SDS011;63121;51.458;-0.110;2023-03-08T04:22:48;21.65;;;8.20;;
74614;SDS011;63121;51.458;-0.110;2023-03-08T04:25:14;21.53;;;8.20;;
74614;SDS011;63121;51.458;-0.110;2023-03-08T04:27:39;19.88;;;7.07;;
74614;SDS011;63121;51.458;-0.110;2023-03-08T04:30:05;17.52;;;7.10;;
74614;SDS011;63121;51.458;-0.110;2023-03-08T04:32:31;15.43;;;5.45;;
74614;SDS011;63121;51.458;-0.110;2023-03-08T04:34:57;16.08;;;6.53;;
74614;SDS011;63121;51.458;-0.110;2023-03-08T04:37:23;14.98;;;4.95;;
74614;SDS011;63121;51.458;-0.110;2023-03-08T04:39:49;19.02;;;6.25;;
74614;SDS011;63121;51.458;-0.110;2023-03-08T04:42:14;15.37;;;5.30;;
74614;SDS011;63121;51.458;-0.110;2023-03-08T04:44:39;14.60;;;5.27;;
74614;SDS011;63121;51.458;-0.110;2023-03-08T04:47:05;15.00;;;5.07;;
74614;SDS011;63121;51.458;-0.110;2023-03-08T04:49:30;15.15;;;5.57;;
74614;SDS011;63121;51.458;-0.110;2023-03-08T04:51:56;15.63;;;5.53;;
74614;SDS011;63121;51.458;-0.110;2023-03-08T04:54:21;13.32;;;4.65;;
74614;SDS011;63121;51.458;-0.110;2023-03-08T04:56:46;14.43;;;4.60;;
74614;SDS011;63121;51.458;-0.110;2023-03-08T04:59:12;11.87;;;3.90;;
74614;SDS011;63121;51.458;-0.110;2023-03-08T05:01:37;13.25;;;4.50;;
74614;SDS011;63121;51.458;-0.110;2023-03-08T05:04:02;13.18;;;4.88;;
74614;SDS011;63121;51.458;-0.110;2023-03-08T05:06:28;11.57;;;4.20;;
74614;SDS011;63121;51.458;-0.110;2023-03-08T05:08:53;11.95;;;4.10;;
74614;SDS011;63121;51.458;-0.110;2023-03-08T05:11:20;13.10;;;4.35;;
74614;SDS011;63121;51.458;-0.110;2023-03-08T05:13:51;12.13;;;4.15;;
74614;SDS011;63121;51.458;-0.110;2023-03-08T05:16:18;10.65;;;3.78;;
74614;SDS011;63121;51.458;-0.110;2023-03-08T05:18:43;11.82;;;4.38;;
74614;SDS011;63121;51.458;-0.110;2023-03-08T05:21:10;12.80;;;4.28;;
74614;SDS011;63121;51.458;-0.110;2023-03-08T05:23:37;12.40;;;4.20;;
74614;SDS011;63121;51.458;-0.110;2023-03-08T05:26:03;12.63;;;4.28;;
74614;SDS011;63121;51.458;-0.110;2023-03-08T05:28:31;13.73;;;4.93;;
74614;SDS011;63121;51.458;-0.110;2023-03-08T05:31:01;13.70;;;4.60;;
74614;SDS011;63121;51.458;-0.110;2023-03-08T05:33:31;11.10;;;4.30;;
74614;SDS011;63121;51.458;-0.110;2023-03-08T05:35:57;13.40;;;4.25;;
74614;SDS011;63121;51.458;-0.110;2023-03-08T05:38:23;14.13;;;5.32;;
74614;SDS011;63121;51.458;-0.110;2023-03-08T05:40:49;12.57;;;4.50;;
74614;SDS011;63121;51.458;-0.110;2023-03-08T05:43:14;12.00;;;4.53;;
74614;SDS011;63121;51.458;-0.110;2023-03-08T05:45:41;15.48;;;4.72;;
74614;SDS011;63121;51.458;-0.110;2023-03-08T05:48:06;13.80;;;5.05;;
74614;SDS011;63121;51.458;-0.110;2023-03-08T05:50:32;12.10;;;4.78;;
74614;SDS011;63121;51.458;-0.110;2023-03-08T05:52:57;12.70;;;4.77;;
74614;SDS011;63121;51.458;-0.110;2023-03-08T05:55:23;13.23;;;4.23;;
74614;SDS011;63121;51.458;-0.110;2023-03-08T05:57:48;13.98;;;4.90;;
74614;SDS011;63121;51.458;-0.110;2023-03-08T06:00:14;13.52;;;4.95;;
74614;SDS011;63121;51.458;-0.110;2023-03-08T06:02:40;13.95;;;5.05;;
74614;SDS011;63121;51.458;-0.110;2023-03-08T06:05:06;12.60;;;4.38;;
74614;SDS011;63121;51.458;-0.110;2023-03-08T06:07:31;13.23;;;4.95;;
74614;SDS011;63121;51.458;-0.110;2023-03-08T06:09:57;11.17;;;4.47;;
74614;SDS011;63121;51.458;-0.110;2023-03-08T06:12:22;10.67;;;4.37;;
74614;SDS011;63121;51.458;-0.110;2023-03-08T06:14:48;10.35;;;3.80;;
74614;SDS011;63121;51.458;-0.110;2023-03-08T06:17:13;11.73;;;4.23;;
74614;SDS011;63121;51.458;-0.110;2023-03-08T06:19:38;12.33;;;4.00;;
74614;SDS011;63121;51.458;-0.110;2023-03-08T06:22:03;9.57;;;4.00;;
74614;SDS011;63121;51.458;-0.110;2023-03-08T06:24:29;9.90;;;4.13;;
74614;SDS011;63121;51.458;-0.110;2023-03-08T06:26:55;10.88;;;4.05;;
74614;SDS011;63121;51.458;-0.110;2023-03-08T06:29:20;11.43;;;4.30;;
74614;SDS011;63121;51.458;-0.110;2023-03-08T06:31:46;10.55;;;4.03;;
74614;SDS011;63121;51.458;-0.110;2023-03-08T06:34:11;10.70;;;4.07;;
74614;SDS011;63121;51.458;-0.110;2023-03-08T06:36:37;11.30;;;4.40;;
74614;SDS011;63121;51.458;-0.110;2023-03-08T06:39:02;9.67;;;3.70;;
74614;SDS011;63121;51.458;-0.110;2023-03-08T06:41:28;11.93;;;4.10;;
74614;SDS011;63121;51.458;-0.110;2023-03-08T06:43:54;12.13;;;4.00;;
74614;SDS011;63121;51.458;-0.110;2023-03-08T06:46:20;10.77;;;3.58;;
74614;SDS011;63121;51.458;-0.110;2023-03-08T06:48:45;9.30;;;3.30;;
74614;SDS011;63121;51.458;-0.110;2023-03-08T06:51:12;10.65;;;3.83;;
74614;SDS011;63121;51.458;-0.110;2023-03-08T06:53:38;8.77;;;3.35;;
74614;SDS011;63121;51.458;-0.110;2023-03-08T06:56:04;8.93;;;3.22;;
74614;SDS011;63121;51.458;-0.110;2023-03-08T06:58:31;8.38;;;3.10;;
74614;SDS011;63121;51.458;-0.110;2023-03-08T07:00:58;7.68;;;2.95;;
74614;SDS011;63121;51.458;-0.110;2023-03-08T07:03:24;7.65;;;2.72;;
74614;SDS011;63121;51.458;-0.110;2023-03-08T07:05:49;8.13;;;2.72;;
74614;SDS011;63121;51.458;-0.110;2023-03-08T07:08:15;10.50;;;3.45;;
74614;SDS011;63121;51.458;-0.110;2023-03-08T07:10:40;7.78;;;2.65;;
74614;SDS011;63121;51.458;-0.110;2023-03-08T07:13:06;8.10;;;2.70;;
74614;SDS011;63121;51.458;-0.110;2023-03-08T07:15:31;8.33;;;2.73;;
74614;SDS011;63121;51.458;-0.110;2023-03-08T07:17:56;7.95;;;2.67;;
74614;SDS011;63121;51.458;-0.110;2023-03-08T07:20:23;8.73;;;2.90;;
74614;SDS011;63121;51.458;-0.110;2023-03-08T07:22:49;7.05;;;2.60;;
74614;SDS011;63121;51.458;-0.110;2023-03-08T07:25:16;8.80;;;3.35;;
74614;SDS011;63121;51.458;-0.110;2023-03-08T07:27:43;9.63;;;3.45;;
74614;SDS011;63121;51.458;-0.110;2023-03-08T07:30:09;7.50;;;2.75;;
74614;SDS011;63121;51.458;-0.110;2023-03-08T07:32:37;6.90;;;2.53;;
74614;SDS011;63121;51.458;-0.110;2023-03-08T07:35:05;10.55;;;4.30;;
74614;SDS011;63121;51.458;-0.110;2023-03-08T07:37:31;8.30;;;3.08;;
74614;SDS011;63121;51.458;-0.110;2023-03-08T07:39:57;9.98;;;4.07;;
74614;SDS011;63121;51.458;-0.110;2023-03-08T07:42:22;10.65;;;3.10;;
74614;SDS011;63121;51.458;-0.110;2023-03-08T07:44:47;6.00;;;2.47;;
74614;SDS011;63121;51.458;-0.110;2023-03-08T07:47:13;7.63;;;2.87;;
74614;SDS011;63121;51.458;-0.110;2023-03-08T07:49:38;8.85;;;3.55;;
74614;SDS011;63121;51.458;-0.110;2023-03-08T07:52:03;9.02;;;3.45;;
74614;SDS011;63121;51.458;-0.110;2023-03-08T07:54:29;7.07;;;2.40;;
74614;SDS011;63121;51.458;-0.110;2023-03-08T07:56:54;6.57;;;2.17;;
74614;SDS011;63121;51.458;-0.110;2023-03-08T07:59:20;7.57;;;2.60;;
74614;SDS011;63121;51.458;-0.110;2023-03-08T08:01:49;6.60;;;2.42;;
74614;SDS011;63121;51.458;-0.110;2023-03-08T08:04:14;8.23;;;3.08;;
74614;SDS011;63121;51.458;-0.110;2023-03-08T08:06:40;8.20;;;2.85;;
74614;SDS011;63121;51.458;-0.110;2023-03-08T08:09:07;6.55;;;2.42;;
74614;SDS011;63121;51.458;-0.110;2023-03-08T08:13:59;7.47;;;2.53;;
74614;SDS011;63121;51.458;-0.110;2023-03-08T08:16:25;6.28;;;2.10;;
74614;SDS011;63121;51.458;-0.110;2023-03-08T08:18:51;7.82;;;2.53;;
74614;SDS011;63121;51.458;-0.110;2023-03-08T08:21:17;7.00;;;2.95;;
74614;SDS011;63121;51.458;-0.110;2023-03-08T08:23:43;7.28;;;2.70;;
74614;SDS011;63121;51.458;-0.110;2023-03-08T08:26:18;6.40;;;2.22;;
74614;SDS011;63121;51.458;-0.110;2023-03-08T08:28:46;7.57;;;3.08;;
74614;SDS011;63121;51.458;-0.110;2023-03-08T08:31:15;8.82;;;2.42;;
74614;SDS011;63121;51.458;-0.110;2023-03-08T08:33:43;8.80;;;2.88;;
74614;SDS011;63121;51.458;-0.110;2023-03-08T08:36:10;8.20;;;2.40;;
74614;SDS011;63121;51.458;-0.110;2023-03-08T08:38:38;8.60;;;3.13;;
74614;SDS011;63121;51.458;-0.110;2023-03-08T08:41:05;7.55;;;2.85;;
74614;SDS011;63121;51.458;-0.110;2023-03-08T08:43:32;9.40;;;2.92;;
74614;SDS011;63121;51.458;-0.110;2023-03-08T08:45:59;7.70;;;2.92;;
74614;SDS011;63121;51.458;-0.110;2023-03-08T08:48:25;8.60;;;3.42;;
74614;SDS011;63121;51.458;-0.110;2023-03-08T08:50:51;7.72;;;3.08;;
74614;SDS011;63121;51.458;-0.110;2023-03-08T08:53:17;6.43;;;2.55;;
74614;SDS011;63121;51.458;-0.110;2023-03-08T08:55:43;7.43;;;2.80;;
74614;SDS011;63121;51.458;-0.110;2023-03-08T08:58:08;7.65;;;3.15;;
74614;SDS011;63121;51.458;-0.110;2023-03-08T09:00:34;7.85;;;3.30;;
74614;SDS011;63121;51.458;-0.110;2023-03-08T09:03:00;10.27;;;4.40;;
74614;SDS011;63121;51.458;-0.110;2023-03-08T09:05:26;7.30;;;3.15;;
74614;SDS011;63121;51.458;-0.110;2023-03-08T09:07:53;9.00;;;3.55;;
74614;SDS011;63121;51.458;-0.110;2023-03-08T09:10:19;6.45;;;2.95;;
74614;SDS011;63121;51.458;-0.110;2023-03-08T09:12:45;8.70;;;3.38;;
74614;SDS011;63121;51.458;-0.110;2023-03-08T09:15:11;8.60;;;3.15;;
74614;SDS011;63121;51.458;-0.110;2023-03-08T09:17:37;6.47;;;2.50;;
74614;SDS011;63121;51.458;-0.110;2023-03-08T09:20:04;7.80;;;2.90;;
74614;SDS011;63121;51.458;-0.110;2023-03-08T09:22:30;8.20;;;3.08;;
74614;SDS011;63121;51.458;-0.110;2023-03-08T09:24:56;7.07;;;2.85;;
74614;SDS011;63121;51.458;-0.110;2023-03-08T09:27:21;7.33;;;2.83;;
74614;SDS011;63121;51.458;-0.110;2023-03-08T09:29:47;8.38;;;3.00;;
74614;SDS011;63121;51.458;-0.110;2023-03-08T09:32:12;7.18;;;2.72;;
74614;SDS011;63121;51.458;-0.110;2023-03-08T09:34:38;4.40;;;1.63;;
74614;SDS011;63121;51.458;-0.110;2023-03-08T09:37:03;8.88;;;2.35;;
74614;SDS011;63121;51.458;-0.110;2023-03-08T09:39:31;6.63;;;2.95;;
74614;SDS011;63121;51.458;-0.110;2023-03-08T09:41:58;7.60;;;2.63;;
74614;SDS011;63121;51.458;-0.110;2023-03-08T09:50:49;7.38;;;2.22;;
74614;SDS011;63121;51.458;-0.110;2023-03-08T09:53:02;5.63;;;2.47;;
74614;SDS011;63121;51.458;-0.110;2023-03-08T09:55:31;5.95;;;2.20;;
74614;SDS011;63121;51.458;-0.110;2023-03-08T09:58:04;7.63;;;2.38;;
74614;SDS011;63121;51.458;-0.110;2023-03-08T10:00:51;6.25;;;2.65;;
74614;SDS011;63121;51.458;-0.110;2023-03-08T10:09:02;7.70;;;1.55;;
74614;SDS011;63121;51.458;-0.110;2023-03-08T10:14:29;5.28;;;1.52;;
74614;SDS011;63121;51.458;-0.110;2023-03-08T10:17:02;4.65;;;1.77;;
74614;SDS011;63121;51.458;-0.110;2023-03-08T10:19:36;5.07;;;1.70;;
74614;SDS011;63121;51.458;-0.110;2023-03-08T10:22:19;3.95;;;1.50;;
74614;SDS011;63121;51.458;-0.110;2023-03-08T10:24:57;6.60;;;2.05;;
74614;SDS011;63121;51.458;-0.110;2023-03-08T10:27:26;5.13;;;1.85;;
74614;SDS011;63121;51.458;-0.110;2023-03-08T10:29:56;2.83;;;1.17;;
74614;SDS011;63121;51.458;-0.110;2023-03-08T10:32:23;4.28;;;1.70;;
74614;SDS011;63121;51.458;-0.110;2023-03-08T10:34:49;3.60;;;1.30;;
74614;SDS011;63121;51.458;-0.110;2023-03-08T10:37:15;8.00;;;2.17;;
74614;SDS011;63121;51.458;-0.110;2023-03-08T10:39:48;6.03;;;1.60;;
74614;SDS011;63121;51.458;-0.110;2023-03-08T10:42:17;5.47;;;1.45;;
74614;SDS011;63121;51.458;-0.110;2023-03-08T10:44:56;6.45;;;1.83;;
74614;SDS011;63121;51.458;-0.110;2023-03-08T10:47:26;5.07;;;1.95;;
74614;SDS011;63121;51.458;-0.110;2023-03-08T10:50:10;3.42;;;1.30;;
74614;SDS011;63121;51.458;-0.110;2023-03-08T10:52:38;4.78;;;1.60;;
74614;SDS011;63121;51.458;-0.110;2023-03-08T10:57:41;4.00;;;1.17;;
74614;SDS011;63121;51.458;-0.110;2023-03-08T11:02:44;3.97;;;1.52;;
74614;SDS011;63121;51.458;-0.110;2023-03-08T11:07:55;4.35;;;1.75;;
74614;SDS011;63121;51.458;-0.110;2023-03-08T11:10:23;5.55;;;1.70;;
74614;SDS011;63121;51.458;-0.110;2023-03-08T11:13:12;4.00;;;1.60;;
74614;SDS011;63121;51.458;-0.110;2023-03-08T11:21:52;5.75;;;2.20;;
74614;SDS011;63121;51.458;-0.110;2023-03-08T11:30:26;3.50;;;1.33;;
74614;SDS011;63121;51.458;-0.110;2023-03-08T11:38:44;5.72;;;1.90;;
74614;SDS011;63121;51.458;-0.110;2023-03-08T11:44:14;2.55;;;1.13;;
74614;SDS011;63121;51.458;-0.110;2023-03-08T11:57:43;3.83;;;1.27;;
74614;SDS011;63121;51.458;-0.110;2023-03-08T12:02:58;2.63;;;1.30;;
74614;SDS011;63121;51.458;-0.110;2023-03-08T12:05:29;5.00;;;1.58;;
74614;SDS011;63121;51.458;-0.110;2023-03-08T12:07:59;3.33;;;1.23;;
74614;SDS011;63121;51.458;-0.110;2023-03-08T12:10:32;4.85;;;1.67;;
74614;SDS011;63121;51.458;-0.110;2023-03-08T12:16:07;4.60;;;1.67;;
74614;SDS011;63121;51.458;-0.110;2023-03-08T12:18:41;5.13;;;1.50;;
74614;SDS011;63121;51.458;-0.110;2023-03-08T12:23:50;3.03;;;1.13;;
74614;SDS011;63121;51.458;-0.110;2023-03-08T12:26:28;4.82;;;1.90;;
74614;SDS011;63121;51.458;-0.110;2023-03-08T12:28:59;3.28;;;1.45;;
74614;SDS011;63121;51.458;-0.110;2023-03-08T12:31:39;4.53;;;1.33;;
74614;SDS011;63121;51.458;-0.110;2023-03-08T12:34:24;3.75;;;1.20;;
74614;SDS011;63121;51.458;-0.110;2023-03-08T12:36:52;3.40;;;1.23;;
74614;SDS011;63121;51.458;-0.110;2023-03-08T12:39:31;5.57;;;1.67;;
74614;SDS011;63121;51.458;-0.110;2023-03-08T12:42:47;6.50;;;1.67;;
74614;SDS011;63121;51.458;-0.110;2023-03-08T12:50:38;4.45;;;1.60;;
74614;SDS011;63121;51.458;-0.110;2023-03-08T12:58:35;5.35;;;2.25;;
74614;SDS011;63121;51.458;-0.110;2023-03-08T13:04:03;5.82;;;2.05;;
74614;SDS011;63121;51.458;-0.110;2023-03-08T13:09:36;3.72;;;1.35;;
74614;SDS011;63121;51.458;-0.110;2023-03-08T13:14:40;6.07;;;1.97;;
74614;SDS011;63121;51.458;-0.110;2023-03-08T13:19:56;4.72;;;1.70;;
74614;SDS011;63121;51.458;-0.110;2023-03-08T13:22:28;4.28;;;1.35;;
74614;SDS011;63121;51.458;-0.110;2023-03-08T13:28:14;4.18;;;1.67;;
74614;SDS011;63121;51.458;-0.110;2023-03-08T13:33:16;3.95;;;1.55;;
74614;SDS011;63121;51.458;-0.110;2023-03-08T13:36:05;6.30;;;1.90;;
74614;SDS011;63121;51.458;-0.110;2023-03-08T13:38:38;5.32;;;1.85;;
74614;SDS011;63121;51.458;-0.110;2023-03-08T13:41:03;5.63;;;1.75;;
74614;SDS011;63121;51.458;-0.110;2023-03-08T13:43:30;5.45;;;1.67;;
74614;SDS011;63121;51.458;-0.110;2023-03-08T13:46:04;3.25;;;1.42;;
74614;SDS011;63121;51.458;-0.110;2023-03-08T13:48:41;4.53;;;1.58;;
74614;SDS011;63121;51.458;-0.110;2023-03-08T13:51:07;5.95;;;1.67;;
74614;SDS011;63121;51.458;-0.110;2023-03-08T13:53:34;7.35;;;1.70;;
74614;SDS011;63121;51.458;-0.110;2023-03-08T13:56:02;5.15;;;1.60;;
74614;SDS011;63121;51.458;-0.110;2023-03-08T13:58:33;4.55;;;1.70;;
74614;SDS011;63121;51.458;-0.110;2023-03-08T14:01:18;6.35;;;1.75;;
74614;SDS011;63121;51.458;-0.110;2023-03-08T14:03:46;2.88;;;1.10;;
74614;SDS011;63121;51.458;-0.110;2023-03-08T14:06:16;4.50;;;1.48;;
74614;SDS011;63121;51.458;-0.110;2023-03-08T14:08:49;7.30;;;1.52;;
74614;SDS011;63121;51.458;-0.110;2023-03-08T14:11:17;4.50;;;1.75;;
74614;SDS011;63121;51.458;-0.110;2023-03-08T14:13:47;4.85;;;1.70;;
74614;SDS011;63121;51.458;-0.110;2023-03-08T14:16:22;6.05;;;1.50;;
74614;SDS011;63121;51.458;-0.110;2023-03-08T14:18:50;4.00;;;1.33;;
74614;SDS011;63121;51.458;-0.110;2023-03-08T14:21:17;5.43;;;1.80;;
74614;SDS011;63121;51.458;-0.110;2023-03-08T14:23:47;5.38;;;1.67;;
74614;SDS011;63121;51.458;-0.110;2023-03-08T14:26:37;5.80;;;1.92;;
74614;SDS011;63121;51.458;-0.110;2023-03-08T14:31:53;5.63;;;1.70;;
74614;SDS011;63121;51.458;-0.110;2023-03-08T14:34:25;3.22;;;1.17;;
74614;SDS011;63121;51.458;-0.110;2023-03-08T14:36:54;5.90;;;1.67;;
74614;SDS011;63121;51.458;-0.110;2023-03-08T14:39:23;4.72;;;1.67;;
74614;SDS011;63121;51.458;-0.110;2023-03-08T14:41:50;4.07;;;1.67;;
74614;SDS011;63121;51.458;-0.110;2023-03-08T14:44:19;4.72;;;1.63;;
74614;SDS011;63121;51.458;-0.110;2023-03-08T14:46:47;5.30;;;1.90;;
74614;SDS011;63121;51.458;-0.110;2023-03-08T14:49:20;4.35;;;1.60;;
74614;SDS011;63121;51.458;-0.110;2023-03-08T14:51:47;5.13;;;1.60;;
74614;SDS011;63121;51.458;-0.110;2023-03-08T14:56:47;5.22;;;1.52;;
74614;SDS011;63121;51.458;-0.110;2023-03-08T14:59:13;6.55;;;2.08;;
74614;SDS011;63121;51.458;-0.110;2023-03-08T15:01:38;5.43;;;1.40;;
74614;SDS011;63121;51.458;-0.110;2023-03-08T15:04:21;6.88;;;2.28;;
74614;SDS011;63121;51.458;-0.110;2023-03-08T15:06:47;5.18;;;1.83;;
74614;SDS011;63121;51.458;-0.110;2023-03-08T15:11:41;5.78;;;1.75;;
74614;SDS011;63121;51.458;-0.110;2023-03-08T15:16:37;4.57;;;1.70;;
74614;SDS011;63121;51.458;-0.110;2023-03-08T15:19:02;7.45;;;2.20;;
74614;SDS011;63121;51.458;-0.110;2023-03-08T15:21:28;4.60;;;1.75;;
74614;SDS011;63121;51.458;-0.110;2023-03-08T15:23:54;4.68;;;1.73;;
74614;SDS011;63121;51.458;-0.110;2023-03-08T15:26:21;3.08;;;1.25;;
74614;SDS011;63121;51.458;-0.110;2023-03-08T15:28:52;6.07;;;1.50;;
74614;SDS011;63121;51.458;-0.110;2023-03-08T15:31:18;4.50;;;1.77;;
74614;SDS011;63121;51.458;-0.110;2023-03-08T15:33:43;4.85;;;1.60;;
74614;SDS011;63121;51.458;-0.110;2023-03-08T15:36:13;4.28;;;1.48;;
74614;SDS011;63121;51.458;-0.110;2023-03-08T15:38:40;6.25;;;1.80;;
74614;SDS011;63121;51.458;-0.110;2023-03-08T15:41:09;4.57;;;1.50;;
74614;SDS011;63121;51.458;-0.110;2023-03-08T15:43:35;4.22;;;1.65;;
74614;SDS011;63121;51.458;-0.110;2023-03-08T15:46:01;5.78;;;2.10;;
74614;SDS011;63121;51.458;-0.110;2023-03-08T15:48:26;5.87;;;2.03;;
74614;SDS011;63121;51.458;-0.110;2023-03-08T15:50:51;5.95;;;2.20;;
74614;SDS011;63121;51.458;-0.110;2023-03-08T15:53:17;7.75;;;2.40;;
74614;SDS011;63121;51.458;-0.110;2023-03-08T15:55:42;5.93;;;1.88;;
74614;SDS011;63121;51.458;-0.110;2023-03-08T15:58:08;6.85;;;2.25;;
74614;SDS011;63121;51.458;-0.110;2023-03-08T16:00:33;6.78;;;2.10;;
74614;SDS011;63121;51.458;-0.110;2023-03-08T16:02:59;5.85;;;2.00;;
74614;SDS011;63121;51.458;-0.110;2023-03-08T16:05:25;5.97;;;2.30;;
74614;SDS011;63121;51.458;-0.110;2023-03-08T16:07:56;5.70;;;2.35;;
74614;SDS011;63121;51.458;-0.110;2023-03-08T16:10:27;7.22;;;2.60;;
74614;SDS011;63121;51.458;-0.110;2023-03-08T16:12:53;8.90;;;2.72;;
74614;SDS011;63121;51.458;-0.110;2023-03-08T16:15:19;6.40;;;2.20;;
74614;SDS011;63121;51.458;-0.110;2023-03-08T16:17:45;8.30;;;3.10;;
74614;SDS011;63121;51.458;-0.110;2023-03-08T16:20:11;8.55;;;2.70;;
74614;SDS011;63121;51.458;-0.110;2023-03-08T16:22:38;7.10;;;2.58;;